ブラジリア の空港の天気 - METARとTAF

ブラジリア国際空港 ( SBBR / BSB ) - ブラジル ブラジリア
飛行場実況気象(Metar)
観測時間01/29 06:00 BRST (01/29 08:00 UTC)
風向・風速北 2m/s
視程10km以上
天気現象
なし
気温19℃
湿度94%
気圧1015hPa
METARSBBR 290800Z 35004KT CAVOK 19/18 Q1015
過去の天気等 Google飛行場航空写真 Wunderground天気予報

過去48時間のMETAR

飛行場予報(TAF)
発表時間: 1/29 01:45 BRST (1/29 03:45 UTC)
予報対象時間: 29日4時 BRST ~ 30日4時 BRST
風向・風速北 1m/s
視程8000m
少しの雲 雲底高度 760m
29日10時 BRST ~ 29日12時 BRST に徐々に
風向・風速北 4m/s
全天の4割程度の雲 雲底高度 760m
29日13時 BRST ~ 29日15時 BRST に徐々に
風向・風速北 5m/s
全天の8割程度の雲 雲底高度 760m
29日16時 BRST ~ 29日19時 BRST に一時的に
天気現象雷雨
全天の4割程度の雲 雲底高度 760m
少しの積乱雲 雲底高度 1220m
29日19時 BRST ~ 29日21時 BRST に徐々に
風向・風速北 2m/s
全天の4割程度の雲 雲底高度 760m
29日22時 BRST ~ 29日24時 BRST に徐々に
少しの雲 雲底高度 760m
TAF SBBR 290345Z 2906/3006 35002KT 8000 FEW025 TN18/2909Z TX27/2917Z
BECMG 2912/2914 01007KT SCT025
BECMG 2915/2917 01010KT BKN025
TEMPO 2918/2921 TSRA SCT025 FEW040CB
BECMG 2921/2923 35004KT SCT025
BECMG 3000/3002 FEW025 RMK PGM